sensor_id;sensor_type;location;lat;lon;timestamp;P1;durP1;ratioP1;P2;durP2;ratioP2
33108;SDS011;19481;51.118;6.940;2023-07-02T00:04:48;1.98;;;1.23;;
33108;SDS011;19481;51.118;6.940;2023-07-02T00:09:51;2.58;;;1.70;;
33108;SDS011;19481;51.118;6.940;2023-07-02T00:14:52;2.22;;;1.40;;
33108;SDS011;19481;51.118;6.940;2023-07-02T00:19:54;6.35;;;1.90;;
33108;SDS011;19481;51.118;6.940;2023-07-02T00:24:57;6.47;;;2.20;;
33108;SDS011;19481;51.118;6.940;2023-07-02T00:29:59;4.18;;;2.00;;
33108;SDS011;19481;51.118;6.940;2023-07-02T00:35:00;3.92;;;1.92;;
33108;SDS011;19481;51.118;6.940;2023-07-02T00:40:04;6.85;;;2.35;;
33108;SDS011;19481;51.118;6.940;2023-07-02T00:45:07;4.68;;;2.15;;
33108;SDS011;19481;51.118;6.940;2023-07-02T00:50:09;5.85;;;2.30;;
33108;SDS011;19481;51.118;6.940;2023-07-02T00:55:13;5.72;;;2.45;;
33108;SDS011;19481;51.118;6.940;2023-07-02T01:00:16;7.68;;;2.40;;
33108;SDS011;19481;51.118;6.940;2023-07-02T01:05:18;4.65;;;2.70;;
33108;SDS011;19481;51.118;6.940;2023-07-02T01:10:22;8.73;;;2.80;;
33108;SDS011;19481;51.118;6.940;2023-07-02T01:15:24;6.43;;;2.70;;
33108;SDS011;19481;51.118;6.940;2023-07-02T01:20:27;5.03;;;2.30;;
33108;SDS011;19481;51.118;6.940;2023-07-02T01:25:30;7.82;;;3.00;;
33108;SDS011;19481;51.118;6.940;2023-07-02T01:30:36;5.53;;;2.55;;
33108;SDS011;19481;51.118;6.940;2023-07-02T01:35:39;9.30;;;3.13;;
33108;SDS011;19481;51.118;6.940;2023-07-02T01:40:40;6.18;;;3.00;;
33108;SDS011;19481;51.118;6.940;2023-07-02T01:45:42;6.72;;;3.38;;
33108;SDS011;19481;51.118;6.940;2023-07-02T01:50:45;9.23;;;3.83;;
33108;SDS011;19481;51.118;6.940;2023-07-02T01:55:46;8.15;;;3.45;;
33108;SDS011;19481;51.118;6.940;2023-07-02T02:00:49;8.73;;;3.78;;
33108;SDS011;19481;51.118;6.940;2023-07-02T02:05:52;6.50;;;4.03;;
33108;SDS011;19481;51.118;6.940;2023-07-02T02:10:53;9.95;;;4.05;;
33108;SDS011;19481;51.118;6.940;2023-07-02T02:15:55;14.82;;;4.90;;
33108;SDS011;19481;51.118;6.940;2023-07-02T02:20:58;10.35;;;4.38;;
33108;SDS011;19481;51.118;6.940;2023-07-02T02:25:59;13.13;;;4.50;;
33108;SDS011;19481;51.118;6.940;2023-07-02T02:31:01;17.23;;;4.47;;
33108;SDS011;19481;51.118;6.940;2023-07-02T02:36:04;15.80;;;4.45;;
33108;SDS011;19481;51.118;6.940;2023-07-02T02:41:06;12.82;;;4.85;;
33108;SDS011;19481;51.118;6.940;2023-07-02T02:46:08;7.97;;;4.70;;
33108;SDS011;19481;51.118;6.940;2023-07-02T02:51:11;11.50;;;4.65;;
33108;SDS011;19481;51.118;6.940;2023-07-02T02:56:13;11.55;;;4.20;;
33108;SDS011;19481;51.118;6.940;2023-07-02T03:01:15;15.20;;;5.43;;
33108;SDS011;19481;51.118;6.940;2023-07-02T03:06:18;9.90;;;5.00;;
33108;SDS011;19481;51.118;6.940;2023-07-02T03:11:19;11.77;;;4.65;;
33108;SDS011;19481;51.118;6.940;2023-07-02T03:16:21;10.60;;;4.28;;
33108;SDS011;19481;51.118;6.940;2023-07-02T03:21:24;13.05;;;5.07;;
33108;SDS011;19481;51.118;6.940;2023-07-02T03:26:25;11.38;;;5.50;;
33108;SDS011;19481;51.118;6.940;2023-07-02T03:31:27;11.48;;;5.13;;
33108;SDS011;19481;51.118;6.940;2023-07-02T03:36:30;12.60;;;5.78;;
33108;SDS011;19481;51.118;6.940;2023-07-02T03:41:31;12.45;;;5.32;;
33108;SDS011;19481;51.118;6.940;2023-07-02T03:46:33;9.73;;;5.35;;
33108;SDS011;19481;51.118;6.940;2023-07-02T03:51:36;21.38;;;5.82;;
33108;SDS011;19481;51.118;6.940;2023-07-02T03:56:38;16.88;;;6.30;;
33108;SDS011;19481;51.118;6.940;2023-07-02T04:01:40;12.35;;;5.55;;
33108;SDS011;19481;51.118;6.940;2023-07-02T04:06:43;15.32;;;6.18;;
33108;SDS011;19481;51.118;6.940;2023-07-02T04:11:44;15.52;;;6.32;;
33108;SDS011;19481;51.118;6.940;2023-07-02T04:16:46;15.60;;;6.68;;
33108;SDS011;19481;51.118;6.940;2023-07-02T04:21:49;18.63;;;6.78;;
33108;SDS011;19481;51.118;6.940;2023-07-02T04:26:51;21.80;;;6.65;;
33108;SDS011;19481;51.118;6.940;2023-07-02T04:31:53;17.92;;;6.75;;
33108;SDS011;19481;51.118;6.940;2023-07-02T04:36:55;17.98;;;7.32;;
33108;SDS011;19481;51.118;6.940;2023-07-02T04:41:57;19.63;;;7.00;;
33108;SDS011;19481;51.118;6.940;2023-07-02T04:47:00;14.18;;;6.78;;
33108;SDS011;19481;51.118;6.940;2023-07-02T04:52:04;13.30;;;6.38;;
33108;SDS011;19481;51.118;6.940;2023-07-02T04:57:05;18.63;;;7.40;;
33108;SDS011;19481;51.118;6.940;2023-07-02T05:02:07;22.63;;;7.50;;
33108;SDS011;19481;51.118;6.940;2023-07-02T05:07:10;18.27;;;7.55;;
33108;SDS011;19481;51.118;6.940;2023-07-02T05:12:12;18.30;;;7.13;;
33108;SDS011;19481;51.118;6.940;2023-07-02T05:17:13;20.33;;;7.75;;
33108;SDS011;19481;51.118;6.940;2023-07-02T05:22:16;22.23;;;8.52;;
33108;SDS011;19481;51.118;6.940;2023-07-02T05:27:18;20.48;;;9.00;;
33108;SDS011;19481;51.118;6.940;2023-07-02T05:32:19;23.88;;;8.73;;
33108;SDS011;19481;51.118;6.940;2023-07-02T05:37:22;27.65;;;8.50;;
33108;SDS011;19481;51.118;6.940;2023-07-02T05:42:24;20.75;;;7.95;;
33108;SDS011;19481;51.118;6.940;2023-07-02T05:47:26;27.00;;;8.85;;
33108;SDS011;19481;51.118;6.940;2023-07-02T05:52:29;25.05;;;8.65;;
33108;SDS011;19481;51.118;6.940;2023-07-02T05:57:31;19.83;;;8.73;;
33108;SDS011;19481;51.118;6.940;2023-07-02T06:02:32;21.48;;;8.82;;
33108;SDS011;19481;51.118;6.940;2023-07-02T06:07:35;18.75;;;8.77;;
33108;SDS011;19481;51.118;6.940;2023-07-02T06:12:37;19.45;;;8.32;;
33108;SDS011;19481;51.118;6.940;2023-07-02T06:17:38;19.90;;;8.18;;
33108;SDS011;19481;51.118;6.940;2023-07-02T06:22:41;23.95;;;8.70;;
33108;SDS011;19481;51.118;6.940;2023-07-02T06:27:43;27.52;;;8.82;;
33108;SDS011;19481;51.118;6.940;2023-07-02T06:32:44;19.50;;;7.97;;
33108;SDS011;19481;51.118;6.940;2023-07-02T06:37:47;23.35;;;8.52;;
33108;SDS011;19481;51.118;6.940;2023-07-02T06:42:49;20.13;;;8.20;;
33108;SDS011;19481;51.118;6.940;2023-07-02T06:47:50;16.08;;;7.57;;
33108;SDS011;19481;51.118;6.940;2023-07-02T06:52:53;24.70;;;8.73;;
33108;SDS011;19481;51.118;6.940;2023-07-02T06:57:55;20.73;;;8.23;;
33108;SDS011;19481;51.118;6.940;2023-07-02T07:02:57;26.75;;;8.27;;
33108;SDS011;19481;51.118;6.940;2023-07-02T07:08:00;20.70;;;8.60;;
33108;SDS011;19481;51.118;6.940;2023-07-02T07:13:02;22.77;;;8.05;;
33108;SDS011;19481;51.118;6.940;2023-07-02T07:18:04;19.15;;;8.02;;
33108;SDS011;19481;51.118;6.940;2023-07-02T07:23:07;17.92;;;7.35;;
33108;SDS011;19481;51.118;6.940;2023-07-02T07:28:09;25.67;;;7.70;;
33108;SDS011;19481;51.118;6.940;2023-07-02T07:33:15;28.05;;;7.57;;
33108;SDS011;19481;51.118;6.940;2023-07-02T07:38:18;21.65;;;8.00;;
33108;SDS011;19481;51.118;6.940;2023-07-02T07:43:19;19.52;;;7.22;;
33108;SDS011;19481;51.118;6.940;2023-07-02T07:48:21;21.85;;;7.13;;
33108;SDS011;19481;51.118;6.940;2023-07-02T07:53:25;23.40;;;7.07;;
33108;SDS011;19481;51.118;6.940;2023-07-02T07:58:26;19.27;;;7.05;;
33108;SDS011;19481;51.118;6.940;2023-07-02T08:03:28;23.05;;;6.55;;
33108;SDS011;19481;51.118;6.940;2023-07-02T08:08:31;20.17;;;6.63;;
33108;SDS011;19481;51.118;6.940;2023-07-02T08:13:32;19.50;;;6.68;;
33108;SDS011;19481;51.118;6.940;2023-07-02T08:18:34;15.93;;;6.40;;
33108;SDS011;19481;51.118;6.940;2023-07-02T08:23:37;16.13;;;6.50;;
33108;SDS011;19481;51.118;6.940;2023-07-02T08:28:39;19.80;;;7.57;;
33108;SDS011;19481;51.118;6.940;2023-07-02T08:33:40;19.73;;;6.72;;
33108;SDS011;19481;51.118;6.940;2023-07-02T08:38:43;14.27;;;6.28;;
33108;SDS011;19481;51.118;6.940;2023-07-02T08:43:45;16.05;;;6.15;;
33108;SDS011;19481;51.118;6.940;2023-07-02T08:48:48;19.83;;;6.50;;
33108;SDS011;19481;51.118;6.940;2023-07-02T08:53:51;15.77;;;6.72;;
33108;SDS011;19481;51.118;6.940;2023-07-02T08:58:53;19.33;;;6.63;;
33108;SDS011;19481;51.118;6.940;2023-07-02T09:03:58;18.17;;;6.40;;
33108;SDS011;19481;51.118;6.940;2023-07-02T09:09:04;18.90;;;6.45;;
33108;SDS011;19481;51.118;6.940;2023-07-02T09:14:07;16.40;;;6.60;;
33108;SDS011;19481;51.118;6.940;2023-07-02T09:19:08;17.15;;;7.00;;
33108;SDS011;19481;51.118;6.940;2023-07-02T09:24:17;17.45;;;6.70;;
33108;SDS011;19481;51.118;6.940;2023-07-02T09:29:21;20.40;;;7.20;;
33108;SDS011;19481;51.118;6.940;2023-07-02T09:34:27;16.27;;;7.13;;
33108;SDS011;19481;51.118;6.940;2023-07-02T09:39:32;17.13;;;7.30;;
33108;SDS011;19481;51.118;6.940;2023-07-02T09:44:34;17.30;;;7.05;;
33108;SDS011;19481;51.118;6.940;2023-07-02T09:49:37;17.23;;;6.82;;
33108;SDS011;19481;51.118;6.940;2023-07-02T09:54:41;15.27;;;6.60;;
33108;SDS011;19481;51.118;6.940;2023-07-02T09:59:42;15.30;;;7.28;;
33108;SDS011;19481;51.118;6.940;2023-07-02T10:04:45;23.50;;;7.60;;
33108;SDS011;19481;51.118;6.940;2023-07-02T10:09:51;17.83;;;6.88;;
33108;SDS011;19481;51.118;6.940;2023-07-02T10:14:54;13.90;;;7.18;;
33108;SDS011;19481;51.118;6.940;2023-07-02T10:19:57;20.55;;;7.90;;
33108;SDS011;19481;51.118;6.940;2023-07-02T10:25:01;16.20;;;7.32;;
33108;SDS011;19481;51.118;6.940;2023-07-02T10:30:03;20.60;;;7.60;;
33108;SDS011;19481;51.118;6.940;2023-07-02T10:35:15;16.15;;;7.13;;
33108;SDS011;19481;51.118;6.940;2023-07-02T10:40:18;21.08;;;7.43;;
33108;SDS011;19481;51.118;6.940;2023-07-02T10:45:20;18.05;;;7.03;;
33108;SDS011;19481;51.118;6.940;2023-07-02T10:50:22;17.13;;;8.45;;
33108;SDS011;19481;51.118;6.940;2023-07-02T10:55:25;20.52;;;7.95;;
33108;SDS011;19481;51.118;6.940;2023-07-02T11:00:28;19.92;;;7.60;;
33108;SDS011;19481;51.118;6.940;2023-07-02T11:05:30;16.75;;;5.97;;
33108;SDS011;19481;51.118;6.940;2023-07-02T11:10:33;16.90;;;5.95;;
33108;SDS011;19481;51.118;6.940;2023-07-02T11:15:35;10.07;;;5.38;;
33108;SDS011;19481;51.118;6.940;2023-07-02T11:20:37;17.92;;;5.78;;
33108;SDS011;19481;51.118;6.940;2023-07-02T11:25:41;15.15;;;5.28;;
33108;SDS011;19481;51.118;6.940;2023-07-02T11:30:44;13.30;;;6.18;;
33108;SDS011;19481;51.118;6.940;2023-07-02T11:35:46;16.92;;;6.30;;
33108;SDS011;19481;51.118;6.940;2023-07-02T11:40:49;14.95;;;6.18;;
33108;SDS011;19481;51.118;6.940;2023-07-02T11:45:51;16.55;;;6.25;;
33108;SDS011;19481;51.118;6.940;2023-07-02T11:50:52;16.48;;;6.18;;
33108;SDS011;19481;51.118;6.940;2023-07-02T11:55:55;15.00;;;5.68;;
33108;SDS011;19481;51.118;6.940;2023-07-02T12:00:57;18.90;;;5.45;;
33108;SDS011;19481;51.118;6.940;2023-07-02T12:05:58;15.48;;;4.72;;
33108;SDS011;19481;51.118;6.940;2023-07-02T12:11:01;11.32;;;4.60;;
33108;SDS011;19481;51.118;6.940;2023-07-02T12:16:03;18.25;;;4.93;;
33108;SDS011;19481;51.118;6.940;2023-07-02T12:21:06;12.05;;;5.05;;
33108;SDS011;19481;51.118;6.940;2023-07-02T12:26:09;15.43;;;4.68;;
33108;SDS011;19481;51.118;6.940;2023-07-02T12:31:11;12.35;;;4.93;;
33108;SDS011;19481;51.118;6.940;2023-07-02T12:36:13;13.38;;;4.32;;
33108;SDS011;19481;51.118;6.940;2023-07-02T12:41:16;7.30;;;3.78;;
33108;SDS011;19481;51.118;6.940;2023-07-02T12:46:17;10.88;;;3.92;;
33108;SDS011;19481;51.118;6.940;2023-07-02T12:51:19;8.57;;;3.83;;
33108;SDS011;19481;51.118;6.940;2023-07-02T12:56:22;7.15;;;3.45;;
33108;SDS011;19481;51.118;6.940;2023-07-02T13:01:23;9.10;;;3.50;;
33108;SDS011;19481;51.118;6.940;2023-07-02T13:06:25;10.07;;;3.78;;
33108;SDS011;19481;51.118;6.940;2023-07-02T13:11:29;10.18;;;3.50;;
33108;SDS011;19481;51.118;6.940;2023-07-02T13:16:30;13.10;;;3.67;;
33108;SDS011;19481;51.118;6.940;2023-07-02T13:21:32;8.77;;;3.47;;
33108;SDS011;19481;51.118;6.940;2023-07-02T13:26:35;12.40;;;4.22;;
33108;SDS011;19481;51.118;6.940;2023-07-02T13:31:37;12.18;;;3.95;;
33108;SDS011;19481;51.118;6.940;2023-07-02T13:36:38;11.32;;;4.25;;
33108;SDS011;19481;51.118;6.940;2023-07-02T13:41:41;10.98;;;4.20;;
33108;SDS011;19481;51.118;6.940;2023-07-02T13:46:43;11.95;;;4.22;;
33108;SDS011;19481;51.118;6.940;2023-07-02T13:51:46;11.40;;;4.47;;
33108;SDS011;19481;51.118;6.940;2023-07-02T13:56:51;13.70;;;4.65;;
33108;SDS011;19481;51.118;6.940;2023-07-02T14:01:54;12.95;;;4.43;;
33108;SDS011;19481;51.118;6.940;2023-07-02T14:06:55;7.93;;;4.43;;
33108;SDS011;19481;51.118;6.940;2023-07-02T14:11:57;14.35;;;4.88;;
33108;SDS011;19481;51.118;6.940;2023-07-02T14:17:00;14.00;;;4.72;;
33108;SDS011;19481;51.118;6.940;2023-07-02T14:22:02;11.52;;;4.50;;
33108;SDS011;19481;51.118;6.940;2023-07-02T14:27:04;15.38;;;4.82;;
33108;SDS011;19481;51.118;6.940;2023-07-02T14:32:07;12.63;;;5.20;;
33108;SDS011;19481;51.118;6.940;2023-07-02T14:37:09;14.38;;;4.90;;
33108;SDS011;19481;51.118;6.940;2023-07-02T14:42:11;13.80;;;5.43;;
33108;SDS011;19481;51.118;6.940;2023-07-02T14:47:14;14.80;;;5.28;;
33108;SDS011;19481;51.118;6.940;2023-07-02T14:52:15;14.65;;;5.72;;
33108;SDS011;19481;51.118;6.940;2023-07-02T14:57:19;13.32;;;5.15;;
33108;SDS011;19481;51.118;6.940;2023-07-02T15:02:23;9.55;;;4.78;;
33108;SDS011;19481;51.118;6.940;2023-07-02T15:07:25;11.93;;;4.82;;
33108;SDS011;19481;51.118;6.940;2023-07-02T15:12:26;21.90;;;5.30;;
33108;SDS011;19481;51.118;6.940;2023-07-02T15:17:30;17.73;;;5.53;;
33108;SDS011;19481;51.118;6.940;2023-07-02T15:22:32;20.85;;;5.32;;
33108;SDS011;19481;51.118;6.940;2023-07-02T15:27:33;13.80;;;5.32;;
33108;SDS011;19481;51.118;6.940;2023-07-02T15:32:36;16.98;;;5.22;;
33108;SDS011;19481;51.118;6.940;2023-07-02T15:37:38;10.93;;;5.07;;
33108;SDS011;19481;51.118;6.940;2023-07-02T15:42:41;14.02;;;4.93;;
33108;SDS011;19481;51.118;6.940;2023-07-02T15:47:44;13.05;;;4.90;;
33108;SDS011;19481;51.118;6.940;2023-07-02T15:52:46;16.92;;;5.32;;
33108;SDS011;19481;51.118;6.940;2023-07-02T15:57:47;10.50;;;4.85;;
33108;SDS011;19481;51.118;6.940;2023-07-02T16:02:51;11.43;;;4.95;;
33108;SDS011;19481;51.118;6.940;2023-07-02T16:07:52;12.77;;;5.78;;
33108;SDS011;19481;51.118;6.940;2023-07-02T16:12:54;12.43;;;4.93;;
33108;SDS011;19481;51.118;6.940;2023-07-02T16:17:57;12.90;;;5.18;;
33108;SDS011;19481;51.118;6.940;2023-07-02T16:22:58;13.70;;;5.03;;
33108;SDS011;19481;51.118;6.940;2023-07-02T16:28:00;12.95;;;5.38;;
33108;SDS011;19481;51.118;6.940;2023-07-02T16:33:04;12.00;;;5.40;;
33108;SDS011;19481;51.118;6.940;2023-07-02T16:38:06;10.40;;;5.25;;
33108;SDS011;19481;51.118;6.940;2023-07-02T16:43:07;13.40;;;4.60;;
33108;SDS011;19481;51.118;6.940;2023-07-02T16:48:11;16.17;;;5.15;;
33108;SDS011;19481;51.118;6.940;2023-07-02T16:53:12;18.02;;;5.15;;
33108;SDS011;19481;51.118;6.940;2023-07-02T16:58:14;14.40;;;5.18;;
33108;SDS011;19481;51.118;6.940;2023-07-02T17:03:17;12.23;;;4.90;;
33108;SDS011;19481;51.118;6.940;2023-07-02T17:08:19;12.48;;;5.20;;
33108;SDS011;19481;51.118;6.940;2023-07-02T17:13:20;10.63;;;5.18;;
33108;SDS011;19481;51.118;6.940;2023-07-02T17:18:23;12.25;;;4.63;;
33108;SDS011;19481;51.118;6.940;2023-07-02T17:23:25;10.13;;;4.60;;
33108;SDS011;19481;51.118;6.940;2023-07-02T17:28:26;15.35;;;5.43;;
33108;SDS011;19481;51.118;6.940;2023-07-02T17:33:30;15.77;;;5.00;;
33108;SDS011;19481;51.118;6.940;2023-07-02T17:38:32;9.90;;;5.30;;
33108;SDS011;19481;51.118;6.940;2023-07-02T17:43:33;12.25;;;5.55;;
33108;SDS011;19481;51.118;6.940;2023-07-02T17:48:36;16.20;;;5.05;;
33108;SDS011;19481;51.118;6.940;2023-07-02T17:53:38;11.75;;;4.82;;
33108;SDS011;19481;51.118;6.940;2023-07-02T17:58:40;15.60;;;5.70;;
33108;SDS011;19481;51.118;6.940;2023-07-02T18:03:43;10.55;;;4.35;;
33108;SDS011;19481;51.118;6.940;2023-07-02T18:08:44;13.60;;;4.85;;
33108;SDS011;19481;51.118;6.940;2023-07-02T18:13:46;9.48;;;5.18;;
33108;SDS011;19481;51.118;6.940;2023-07-02T18:18:49;23.80;;;5.28;;
33108;SDS011;19481;51.118;6.940;2023-07-02T18:23:50;14.50;;;5.18;;
33108;SDS011;19481;51.118;6.940;2023-07-02T18:28:52;16.35;;;6.00;;
33108;SDS011;19481;51.118;6.940;2023-07-02T18:33:55;16.25;;;5.38;;
33108;SDS011;19481;51.118;6.940;2023-07-02T18:38:57;12.82;;;5.05;;
33108;SDS011;19481;51.118;6.940;2023-07-02T18:43:58;13.77;;;5.13;;
33108;SDS011;19481;51.118;6.940;2023-07-02T18:49:02;12.23;;;5.70;;
33108;SDS011;19481;51.118;6.940;2023-07-02T18:54:05;15.23;;;5.65;;
33108;SDS011;19481;51.118;6.940;2023-07-02T18:59:06;13.02;;;4.78;;
33108;SDS011;19481;51.118;6.940;2023-07-02T19:04:09;15.88;;;5.03;;
33108;SDS011;19481;51.118;6.940;2023-07-02T19:09:11;10.95;;;4.85;;
33108;SDS011;19481;51.118;6.940;2023-07-02T19:14:12;14.93;;;5.35;;
33108;SDS011;19481;51.118;6.940;2023-07-02T19:19:15;14.18;;;4.82;;
33108;SDS011;19481;51.118;6.940;2023-07-02T19:24:17;11.18;;;4.70;;
33108;SDS011;19481;51.118;6.940;2023-07-02T19:29:18;13.65;;;4.20;;
33108;SDS011;19481;51.118;6.940;2023-07-02T19:34:22;12.45;;;5.00;;
33108;SDS011;19481;51.118;6.940;2023-07-02T19:39:23;14.10;;;5.57;;
33108;SDS011;19481;51.118;6.940;2023-07-02T19:44:25;11.80;;;5.20;;
33108;SDS011;19481;51.118;6.940;2023-07-02T19:49:28;14.30;;;4.55;;
33108;SDS011;19481;51.118;6.940;2023-07-02T19:54:30;16.05;;;4.88;;
33108;SDS011;19481;51.118;6.940;2023-07-02T19:59:31;17.65;;;4.70;;
33108;SDS011;19481;51.118;6.940;2023-07-02T20:04:35;11.55;;;4.22;;
33108;SDS011;19481;51.118;6.940;2023-07-02T20:09:36;16.85;;;4.72;;
33108;SDS011;19481;51.118;6.940;2023-07-02T20:14:40;10.43;;;4.43;;
33108;SDS011;19481;51.118;6.940;2023-07-02T20:19:44;10.10;;;4.10;;
33108;SDS011;19481;51.118;6.940;2023-07-02T20:24:49;17.42;;;5.47;;
33108;SDS011;19481;51.118;6.940;2023-07-02T20:29:51;12.07;;;4.45;;
33108;SDS011;19481;51.118;6.940;2023-07-02T20:34:54;13.95;;;3.83;;
33108;SDS011;19481;51.118;6.940;2023-07-02T20:39:56;14.57;;;4.82;;
33108;SDS011;19481;51.118;6.940;2023-07-02T20:44:58;11.15;;;4.85;;
33108;SDS011;19481;51.118;6.940;2023-07-02T20:50:02;16.73;;;5.03;;
33108;SDS011;19481;51.118;6.940;2023-07-02T20:55:05;14.43;;;4.13;;
33108;SDS011;19481;51.118;6.940;2023-07-02T21:00:07;13.38;;;4.38;;
33108;SDS011;19481;51.118;6.940;2023-07-02T21:05:12;16.80;;;4.75;;
33108;SDS011;19481;51.118;6.940;2023-07-02T21:10:14;13.27;;;4.32;;
33108;SDS011;19481;51.118;6.940;2023-07-02T21:15:15;11.60;;;4.70;;
33108;SDS011;19481;51.118;6.940;2023-07-02T21:20:18;10.65;;;3.92;;
33108;SDS011;19481;51.118;6.940;2023-07-02T21:25:20;15.35;;;4.18;;
33108;SDS011;19481;51.118;6.940;2023-07-02T21:30:22;11.30;;;3.85;;
33108;SDS011;19481;51.118;6.940;2023-07-02T21:35:26;15.23;;;4.05;;
33108;SDS011;19481;51.118;6.940;2023-07-02T21:40:28;10.23;;;2.90;;
33108;SDS011;19481;51.118;6.940;2023-07-02T21:45:29;10.23;;;2.92;;
33108;SDS011;19481;51.118;6.940;2023-07-02T21:50:32;11.38;;;2.80;;
33108;SDS011;19481;51.118;6.940;2023-07-02T21:55:34;11.60;;;2.22;;
33108;SDS011;19481;51.118;6.940;2023-07-02T22:00:35;12.18;;;2.75;;
33108;SDS011;19481;51.118;6.940;2023-07-02T22:05:38;7.55;;;2.35;;
33108;SDS011;19481;51.118;6.940;2023-07-02T22:10:40;9.60;;;2.53;;
33108;SDS011;19481;51.118;6.940;2023-07-02T22:15:42;10.23;;;2.17;;
33108;SDS011;19481;51.118;6.940;2023-07-02T22:20:45;4.95;;;1.90;;
33108;SDS011;19481;51.118;6.940;2023-07-02T22:25:47;6.88;;;2.00;;
33108;SDS011;19481;51.118;6.940;2023-07-02T22:30:49;6.72;;;1.83;;
33108;SDS011;19481;51.118;6.940;2023-07-02T22:35:52;7.82;;;1.85;;
33108;SDS011;19481;51.118;6.940;2023-07-02T22:40:53;6.43;;;1.60;;
33108;SDS011;19481;51.118;6.940;2023-07-02T22:45:55;5.07;;;1.90;;
33108;SDS011;19481;51.118;6.940;2023-07-02T22:50:58;5.00;;;2.25;;
33108;SDS011;19481;51.118;6.940;2023-07-02T22:56:07;8.77;;;2.08;;
33108;SDS011;19481;51.118;6.940;2023-07-02T23:01:09;7.25;;;1.77;;
33108;SDS011;19481;51.118;6.940;2023-07-02T23:06:14;6.75;;;1.92;;
33108;SDS011;19481;51.118;6.940;2023-07-02T23:11:16;8.32;;;1.65;;
33108;SDS011;19481;51.118;6.940;2023-07-02T23:16:17;5.95;;;1.70;;
33108;SDS011;19481;51.118;6.940;2023-07-02T23:21:20;8.32;;;1.90;;
33108;SDS011;19481;51.118;6.940;2023-07-02T23:26:22;6.93;;;1.75;;
33108;SDS011;19481;51.118;6.940;2023-07-02T23:31:27;12.27;;;2.03;;
33108;SDS011;19481;51.118;6.940;2023-07-02T23:36:30;6.05;;;1.85;;
33108;SDS011;19481;51.118;6.940;2023-07-02T23:41:32;7.82;;;1.98;;
33108;SDS011;19481;51.118;6.940;2023-07-02T23:46:34;5.38;;;1.75;;
33108;SDS011;19481;51.118;6.940;2023-07-02T23:51:37;6.30;;;2.20;;
33108;SDS011;19481;51.118;6.940;2023-07-02T23:56:38;12.50;;;2.40;;
